createdAt,value
2023-02-27T00:00:43.733Z,801.47
2023-02-27T00:01:43.740Z,801.48
2023-02-27T00:02:43.804Z,801.48
2023-02-27T00:03:43.788Z,801.52
2023-02-27T00:04:43.743Z,801.54
2023-02-27T00:05:43.745Z,801.56
2023-02-27T00:06:43.742Z,801.59
2023-02-27T00:07:43.745Z,801.60
2023-02-27T00:08:43.786Z,801.58
2023-02-27T00:09:43.746Z,801.64
2023-02-27T00:10:43.738Z,801.58
2023-02-27T00:11:43.743Z,801.57
2023-02-27T00:12:43.742Z,801.59
2023-02-27T00:13:43.747Z,801.53
2023-02-27T00:14:43.740Z,801.54
2023-02-27T00:15:43.797Z,801.54
2023-02-27T00:16:43.746Z,801.53
2023-02-27T00:17:43.749Z,801.49
2023-02-27T00:18:43.749Z,801.51
2023-02-27T00:19:43.751Z,801.54
2023-02-27T00:20:43.753Z,801.55
2023-02-27T00:21:43.748Z,801.58
2023-02-27T00:22:43.758Z,801.59
2023-02-27T00:23:43.749Z,801.57
2023-02-27T00:24:43.804Z,801.56
2023-02-27T00:25:43.748Z,801.64
2023-02-27T00:26:43.756Z,801.60
2023-02-27T00:27:43.765Z,801.60
2023-02-27T00:28:43.757Z,801.60
2023-02-27T00:29:43.754Z,801.59
2023-02-27T00:30:43.766Z,801.61
2023-02-27T00:31:44.019Z,801.61
2023-02-27T00:32:43.757Z,801.62
2023-02-27T00:33:43.753Z,801.64
2023-02-27T00:34:43.763Z,801.65
2023-02-27T00:35:43.769Z,801.69
2023-02-27T00:36:43.762Z,801.67
2023-02-27T00:37:43.755Z,801.66
2023-02-27T00:38:43.761Z,801.65
2023-02-27T00:39:43.757Z,801.60
2023-02-27T00:40:43.769Z,801.67
2023-02-27T00:41:43.763Z,801.71
2023-02-27T00:42:43.762Z,801.70
2023-02-27T00:43:43.760Z,801.70
2023-02-27T00:44:43.765Z,801.71
2023-02-27T00:45:43.758Z,801.79
2023-02-27T00:46:43.832Z,801.76
2023-02-27T00:47:43.822Z,801.76
2023-02-27T00:48:43.778Z,801.77
2023-02-27T00:49:43.768Z,801.72
2023-02-27T00:50:43.774Z,801.75
2023-02-27T00:51:43.763Z,801.82
2023-02-27T00:52:43.770Z,801.80
2023-02-27T00:53:43.765Z,801.75
2023-02-27T00:54:43.769Z,801.78
2023-02-27T00:55:43.766Z,801.78
2023-02-27T00:56:43.772Z,801.80
2023-02-27T00:57:43.943Z,801.81
2023-02-27T00:58:43.779Z,801.79
2023-02-27T00:59:43.768Z,801.84
2023-02-27T01:00:43.803Z,801.81
2023-02-27T01:01:43.769Z,801.84
2023-02-27T01:02:43.812Z,801.82
2023-02-27T01:03:43.897Z,801.83
2023-02-27T01:04:43.778Z,801.84
2023-02-27T01:05:43.779Z,801.87
2023-02-27T01:06:43.785Z,801.89
2023-02-27T01:07:43.781Z,801.89
2023-02-27T01:08:43.791Z,801.93
2023-02-27T01:09:43.778Z,801.92
2023-02-27T01:10:43.783Z,801.94
2023-02-27T01:11:43.782Z,801.94
2023-02-27T01:12:43.788Z,801.93
2023-02-27T01:13:43.791Z,801.92
2023-02-27T01:14:43.832Z,801.95
2023-02-27T01:15:43.786Z,802.00
2023-02-27T01:16:43.798Z,802.02
2023-02-27T01:17:43.808Z,802.03
2023-02-27T01:18:43.794Z,802.07
2023-02-27T01:19:43.814Z,802.02
2023-02-27T01:20:43.789Z,802.01
2023-02-27T01:21:43.793Z,802.02
2023-02-27T01:22:43.811Z,802.00
2023-02-27T01:23:43.790Z,802.02
2023-02-27T01:24:43.803Z,802.02
2023-02-27T01:25:43.802Z,802.04
2023-02-27T01:26:43.799Z,802.01
2023-02-27T01:27:43.796Z,802.01
2023-02-27T01:28:43.798Z,802.04
2023-02-27T01:29:43.804Z,802.02
2023-02-27T01:30:43.839Z,802.05
2023-02-27T01:31:43.964Z,802.02
2023-02-27T01:32:43.883Z,802.04
2023-02-27T01:33:43.812Z,802.11
2023-02-27T01:34:43.804Z,802.11
2023-02-27T01:35:43.823Z,802.08
2023-02-27T01:36:43.809Z,802.11
2023-02-27T01:37:43.805Z,802.10
2023-02-27T01:38:43.806Z,802.05
2023-02-27T01:39:43.810Z,802.09
2023-02-27T01:40:43.807Z,802.07
2023-02-27T01:41:43.807Z,802.06
2023-02-27T01:42:43.814Z,802.09
2023-02-27T01:43:43.807Z,802.07
2023-02-27T01:44:43.815Z,802.11
2023-02-27T01:45:43.874Z,802.07
2023-02-27T01:46:43.912Z,802.08
2023-02-27T01:47:43.822Z,802.08
2023-02-27T01:48:43.817Z,802.10
2023-02-27T01:49:43.812Z,802.14
2023-02-27T01:50:43.814Z,802.09
2023-02-27T01:51:43.832Z,802.13
2023-02-27T01:52:43.836Z,802.12
2023-02-27T01:53:43.819Z,802.15
2023-02-27T01:54:43.819Z,802.15
2023-02-27T01:55:43.824Z,802.13
2023-02-27T01:56:43.822Z,802.13
2023-02-27T01:57:43.818Z,802.16
2023-02-27T01:58:43.826Z,802.15
2023-02-27T01:59:43.825Z,802.14
2023-02-27T02:00:43.824Z,802.11
2023-02-27T02:01:43.820Z,802.15
2023-02-27T02:02:43.836Z,802.16
2023-02-27T02:03:43.825Z,802.14
2023-02-27T02:04:43.828Z,802.14
2023-02-27T02:05:43.828Z,802.17
2023-02-27T02:06:43.829Z,802.18
2023-02-27T02:07:43.848Z,802.18
2023-02-27T02:08:43.833Z,802.15
2023-02-27T02:09:43.829Z,802.15
2023-02-27T02:10:43.833Z,802.15
2023-02-27T02:11:43.842Z,802.16
2023-02-27T02:12:43.836Z,802.15
2023-02-27T02:13:43.835Z,802.17
2023-02-27T02:14:43.848Z,802.19
2023-02-27T02:15:43.835Z,802.19
2023-02-27T02:16:43.902Z,802.18
2023-02-27T02:17:43.837Z,802.21
2023-02-27T02:18:43.847Z,802.22
2023-02-27T02:19:43.838Z,802.21
2023-02-27T02:20:43.845Z,802.24
2023-02-27T02:21:43.837Z,802.21
2023-02-27T02:22:43.843Z,802.20
2023-02-27T02:23:43.865Z,802.23
2023-02-27T02:24:43.847Z,802.21
2023-02-27T02:25:43.846Z,802.21
2023-02-27T02:26:43.849Z,802.18
2023-02-27T02:27:43.845Z,802.23
2023-02-27T02:28:43.851Z,802.21
2023-02-27T02:29:43.850Z,802.24
2023-02-27T02:30:43.966Z,802.24
2023-02-27T02:31:44.118Z,802.22
2023-02-27T02:32:43.855Z,802.27
2023-02-27T02:33:43.852Z,802.27
2023-02-27T02:34:43.865Z,802.27
2023-02-27T02:35:43.862Z,802.30
2023-02-27T02:36:43.864Z,802.33
2023-02-27T02:37:43.855Z,802.28
2023-02-27T02:38:43.861Z,802.29
2023-02-27T02:39:43.877Z,802.34
2023-02-27T02:40:43.874Z,802.34
2023-02-27T02:41:43.860Z,802.37
2023-02-27T02:42:43.863Z,802.40
2023-02-27T02:43:43.862Z,802.36
2023-02-27T02:44:43.869Z,802.39
2023-02-27T02:45:43.939Z,802.36
2023-02-27T02:46:43.872Z,802.38
2023-02-27T02:47:43.869Z,802.41
2023-02-27T02:48:43.871Z,802.39
2023-02-27T02:49:43.880Z,802.41
2023-02-27T02:50:43.878Z,802.38
2023-02-27T02:51:43.872Z,802.39
2023-02-27T02:52:43.879Z,802.38
2023-02-27T02:53:43.878Z,802.33
2023-02-27T02:54:43.886Z,802.40
2023-02-27T02:55:43.894Z,802.35
2023-02-27T02:56:43.897Z,802.36
2023-02-27T02:57:43.883Z,802.38
2023-02-27T02:58:43.892Z,802.39
2023-02-27T02:59:43.881Z,802.38
2023-02-27T03:00:43.885Z,802.40
2023-02-27T03:01:43.980Z,802.40
2023-02-27T03:02:43.908Z,802.43
2023-02-27T03:03:43.893Z,802.41
2023-02-27T03:04:43.938Z,802.44
2023-02-27T03:05:43.889Z,802.45
2023-02-27T03:06:43.896Z,802.45
2023-02-27T03:07:43.955Z,802.43
2023-02-27T03:08:43.909Z,802.51
2023-02-27T03:09:43.996Z,802.48
2023-02-27T03:10:43.901Z,802.48
2023-02-27T03:11:43.926Z,802.50
2023-02-27T03:12:43.902Z,802.53
2023-02-27T03:13:43.901Z,802.51
2023-02-27T03:14:43.909Z,802.55
2023-02-27T03:15:43.951Z,802.55
2023-02-27T03:16:43.918Z,802.56
2023-02-27T03:17:43.909Z,802.52
2023-02-27T03:18:43.909Z,802.55
2023-02-27T03:19:43.906Z,802.54
2023-02-27T03:20:43.910Z,802.53
2023-02-27T03:21:43.907Z,802.58
2023-02-27T03:22:43.911Z,802.56
2023-02-27T03:23:43.922Z,802.62
2023-02-27T03:24:43.917Z,802.58
2023-02-27T03:25:43.911Z,802.64
2023-02-27T03:26:43.917Z,802.63
2023-02-27T03:27:43.933Z,802.68
2023-02-27T03:28:43.916Z,802.68
2023-02-27T03:29:43.923Z,802.71
2023-02-27T03:30:44.026Z,802.71
2023-02-27T03:31:44.093Z,802.66
2023-02-27T03:32:43.922Z,802.76
2023-02-27T03:33:43.918Z,802.76
2023-02-27T03:34:43.924Z,802.78
2023-02-27T03:35:43.923Z,802.80
2023-02-27T03:36:43.924Z,802.79
2023-02-27T03:37:43.924Z,802.82
2023-02-27T03:38:43.926Z,802.84
2023-02-27T03:39:43.927Z,802.80
2023-02-27T03:40:43.929Z,802.83
2023-02-27T03:41:43.930Z,802.82
2023-02-27T03:42:43.934Z,802.86
2023-02-27T03:43:43.949Z,802.84
2023-02-27T03:44:43.934Z,802.86
2023-02-27T03:45:43.937Z,802.86
2023-02-27T03:46:44.030Z,802.89
2023-02-27T03:47:43.938Z,802.86
2023-02-27T03:48:43.936Z,802.91
2023-02-27T03:49:43.936Z,802.93
2023-02-27T03:50:43.940Z,802.96
2023-02-27T03:51:43.940Z,802.96
2023-02-27T03:52:43.940Z,802.95
2023-02-27T03:53:43.942Z,802.97
2023-02-27T03:54:43.955Z,802.97
2023-02-27T03:55:43.942Z,802.99
2023-02-27T03:56:43.960Z,803.02
2023-02-27T03:57:43.943Z,803.01
2023-02-27T03:58:43.959Z,802.99
2023-02-27T03:59:44.081Z,803.03
2023-02-27T04:00:43.950Z,803.03
2023-02-27T04:01:43.979Z,803.03
2023-02-27T04:02:44.048Z,803.06
2023-02-27T04:03:43.950Z,803.05
2023-02-27T04:04:43.961Z,803.06
2023-02-27T04:05:43.960Z,803.09
2023-02-27T04:06:43.964Z,803.12
2023-02-27T04:07:43.959Z,803.12
2023-02-27T04:08:43.963Z,803.13
2023-02-27T04:09:43.966Z,803.14
2023-02-27T04:10:43.970Z,803.15
2023-02-27T04:11:43.967Z,803.16
2023-02-27T04:12:45.901Z,803.12
2023-02-27T04:13:43.966Z,803.18
2023-02-27T04:14:43.987Z,803.19
2023-02-27T04:15:44.141Z,803.17
2023-02-27T04:16:43.976Z,803.19
2023-02-27T04:17:43.969Z,803.17
2023-02-27T04:18:43.974Z,803.21
2023-02-27T04:19:43.969Z,803.18
2023-02-27T04:20:43.994Z,803.15
2023-02-27T04:21:43.983Z,803.22
2023-02-27T04:22:43.989Z,803.19
2023-02-27T04:23:43.982Z,803.20
2023-02-27T04:24:43.996Z,803.21
2023-02-27T04:25:43.979Z,803.21
2023-02-27T04:26:43.984Z,803.21
2023-02-27T04:27:43.987Z,803.24
2023-02-27T04:28:43.985Z,803.25
2023-02-27T04:29:43.987Z,803.27
2023-02-27T04:30:44.043Z,803.28
2023-02-27T04:31:44.191Z,803.26
2023-02-27T04:32:44.038Z,803.30
2023-02-27T04:33:44.011Z,803.27
2023-02-27T04:34:44.010Z,803.32
2023-02-27T04:35:44.022Z,803.34
2023-02-27T04:36:44.006Z,803.31
2023-02-27T04:37:43.997Z,803.32
2023-02-27T04:38:44.039Z,803.32
2023-02-27T04:39:44.049Z,803.32
2023-02-27T04:40:44.054Z,803.33
2023-02-27T04:41:44.048Z,803.34
2023-02-27T04:42:44.035Z,803.36
2023-02-27T04:43:44.045Z,803.29
2023-02-27T04:44:44.014Z,803.30
2023-02-27T04:45:44.112Z,803.32
2023-02-27T04:46:44.033Z,803.28
2023-02-27T04:47:44.108Z,803.30
2023-02-27T04:48:44.065Z,803.36
2023-02-27T04:49:44.105Z,803.31
2023-02-27T04:50:44.026Z,803.32
2023-02-27T04:51:44.114Z,803.25
2023-02-27T04:52:44.028Z,803.31
2023-02-27T04:53:44.030Z,803.29
2023-02-27T04:54:44.028Z,803.31
2023-02-27T04:55:44.037Z,803.30
2023-02-27T04:56:44.031Z,803.32
2023-02-27T04:57:44.036Z,803.35
2023-02-27T04:58:44.036Z,803.38
2023-02-27T04:59:44.036Z,803.40
2023-02-27T05:00:44.037Z,803.38
2023-02-27T05:01:44.072Z,803.42
2023-02-27T05:02:44.083Z,803.45
2023-02-27T05:03:44.066Z,803.49
2023-02-27T05:04:44.044Z,803.48
2023-02-27T05:05:44.048Z,803.50
2023-02-27T05:06:44.042Z,803.53
2023-02-27T05:07:44.058Z,803.54
2023-02-27T05:08:44.077Z,803.51
2023-02-27T05:09:44.058Z,803.51
2023-02-27T05:10:44.050Z,803.49
2023-02-27T05:11:44.051Z,803.49
2023-02-27T05:12:44.055Z,803.51
2023-02-27T05:13:44.059Z,803.51
2023-02-27T05:14:44.053Z,803.49
2023-02-27T05:15:44.088Z,803.50
2023-02-27T05:16:44.092Z,803.49
2023-02-27T05:17:44.078Z,803.51
2023-02-27T05:18:44.067Z,803.54
2023-02-27T05:19:44.086Z,803.55
2023-02-27T05:20:44.067Z,803.53
2023-02-27T05:21:44.083Z,803.52
2023-02-27T05:22:44.063Z,803.52
2023-02-27T05:23:44.078Z,803.54
2023-02-27T05:24:44.066Z,803.57
2023-02-27T05:25:44.072Z,803.58
2023-02-27T05:26:44.073Z,803.60
2023-02-27T05:27:44.072Z,803.61
2023-02-27T05:28:45.041Z,803.66
2023-02-27T05:29:44.077Z,803.66
2023-02-27T05:30:44.075Z,803.65
2023-02-27T05:31:44.161Z,803.64
2023-02-27T05:32:44.081Z,803.66
2023-02-27T05:33:44.088Z,803.65
2023-02-27T05:34:44.083Z,803.64
2023-02-27T05:35:44.127Z,803.66
2023-02-27T05:36:44.081Z,803.68
2023-02-27T05:37:44.088Z,803.65
2023-02-27T05:38:44.092Z,803.64
2023-02-27T05:39:44.086Z,803.64
2023-02-27T05:40:44.098Z,803.68
2023-02-27T05:41:44.098Z,803.68
2023-02-27T05:42:44.090Z,803.69
2023-02-27T05:43:44.099Z,803.68
2023-02-27T05:44:44.088Z,803.70
2023-02-27T05:45:44.198Z,803.70
2023-02-27T05:46:44.103Z,803.68
2023-02-27T05:47:44.099Z,803.74
2023-02-27T05:48:44.102Z,803.71
2023-02-27T05:49:44.098Z,803.71
2023-02-27T05:50:44.096Z,803.78
2023-02-27T05:51:44.127Z,803.79
2023-02-27T05:52:44.102Z,803.80
2023-02-27T05:53:44.106Z,803.80
2023-02-27T05:54:44.114Z,803.82
2023-02-27T05:55:44.125Z,803.81
2023-02-27T05:56:44.106Z,803.85
2023-02-27T05:57:44.130Z,803.84
2023-02-27T05:58:44.112Z,803.82
2023-02-27T05:59:44.145Z,803.83
2023-02-27T06:00:44.135Z,803.86
2023-02-27T06:01:46.283Z,803.83
2023-02-27T06:02:44.120Z,803.84
2023-02-27T06:03:44.179Z,803.81
2023-02-27T06:04:44.122Z,803.87
2023-02-27T06:05:44.173Z,803.91
2023-02-27T06:06:44.129Z,803.94
2023-02-27T06:07:44.150Z,803.96
2023-02-27T06:08:44.132Z,803.93
2023-02-27T06:09:44.139Z,803.94
2023-02-27T06:10:44.136Z,803.95
2023-02-27T06:11:44.138Z,803.99
2023-02-27T06:12:44.134Z,803.98
2023-02-27T06:13:44.142Z,804.00
2023-02-27T06:14:44.141Z,804.00
2023-02-27T06:15:44.150Z,803.99
2023-02-27T06:16:44.184Z,804.00
2023-02-27T06:17:44.144Z,804.04
2023-02-27T06:18:44.168Z,804.05
2023-02-27T06:19:44.193Z,804.04
2023-02-27T06:20:44.149Z,804.03
2023-02-27T06:21:44.162Z,804.02
2023-02-27T06:22:44.153Z,804.06
2023-02-27T06:23:44.177Z,804.06
2023-02-27T06:24:44.156Z,804.08
2023-02-27T06:25:44.173Z,804.13
2023-02-27T06:26:44.176Z,804.15
2023-02-27T06:27:44.160Z,804.12
2023-02-27T06:28:44.161Z,804.18
2023-02-27T06:29:44.175Z,804.15
2023-02-27T06:30:46.291Z,804.21
2023-02-27T06:31:44.188Z,804.20
2023-02-27T06:32:44.165Z,804.21
2023-02-27T06:33:44.174Z,804.23
2023-02-27T06:34:44.169Z,804.25
2023-02-27T06:35:44.270Z,804.26
2023-02-27T06:36:44.180Z,804.27
2023-02-27T06:37:44.176Z,804.28
2023-02-27T06:38:44.176Z,804.31
2023-02-27T06:39:44.201Z,804.32
2023-02-27T06:40:44.177Z,804.37
2023-02-27T06:41:44.191Z,804.37
2023-02-27T06:42:44.176Z,804.35
2023-02-27T06:43:44.186Z,804.38
2023-02-27T06:44:44.182Z,804.40
2023-02-27T06:45:44.195Z,804.41
2023-02-27T06:46:44.187Z,804.40
2023-02-27T06:47:44.189Z,804.41
2023-02-27T06:48:44.196Z,804.46
2023-02-27T06:49:44.199Z,804.44
2023-02-27T06:50:44.193Z,804.45
2023-02-27T06:51:45.165Z,804.49
2023-02-27T06:52:44.213Z,804.55
2023-02-27T06:53:44.200Z,804.56
2023-02-27T06:54:44.199Z,804.57
2023-02-27T06:55:44.229Z,804.59
2023-02-27T06:56:44.202Z,804.57
2023-02-27T06:57:45.234Z,804.61
2023-02-27T06:58:44.203Z,804.61
2023-02-27T06:59:44.214Z,804.63
2023-02-27T07:00:44.243Z,804.63
2023-02-27T07:01:44.268Z,804.63
2023-02-27T07:02:44.217Z,804.65
2023-02-27T07:03:44.230Z,804.64
2023-02-27T07:04:44.262Z,804.68
2023-02-27T07:05:44.249Z,804.68
2023-02-27T07:07:34.501Z,804.70
2023-02-27T07:07:44.227Z,804.69
2023-02-27T07:08:54.038Z,804.66
2023-02-27T07:09:44.240Z,804.72
2023-02-27T07:10:44.235Z,804.74
2023-02-27T07:11:44.352Z,804.72
2023-02-27T07:12:44.236Z,804.72
2023-02-27T07:13:44.250Z,804.70
2023-02-27T07:14:44.238Z,804.73
2023-02-27T07:15:44.282Z,804.75
2023-02-27T07:16:44.240Z,804.76
2023-02-27T07:17:44.245Z,804.75
2023-02-27T07:18:44.241Z,804.78
2023-02-27T07:19:44.248Z,804.77
2023-02-27T07:20:44.254Z,804.78
2023-02-27T07:21:44.250Z,804.78
2023-02-27T07:22:44.247Z,804.82
2023-02-27T07:23:44.272Z,804.81
2023-02-27T07:24:44.252Z,804.84
2023-02-27T07:25:44.257Z,804.82
2023-02-27T07:26:44.256Z,804.82
2023-02-27T07:27:44.306Z,804.83
2023-02-27T07:28:44.335Z,804.85
2023-02-27T07:29:44.263Z,804.85
2023-02-27T07:30:44.498Z,804.87
2023-02-27T07:31:44.328Z,804.91
2023-02-27T07:32:44.266Z,804.89
2023-02-27T07:33:44.269Z,804.90
2023-02-27T07:34:44.269Z,804.94
2023-02-27T07:35:44.304Z,804.96
2023-02-27T07:36:44.276Z,804.92
2023-02-27T07:37:44.277Z,804.93
2023-02-27T07:38:44.276Z,804.96
2023-02-27T07:39:44.280Z,804.98
2023-02-27T07:40:44.280Z,804.96
2023-02-27T07:41:44.285Z,804.98
2023-02-27T07:42:44.286Z,804.96
2023-02-27T07:43:44.315Z,805.00
2023-02-27T07:44:44.287Z,805.05
2023-02-27T07:45:44.293Z,805.05
2023-02-27T07:46:44.312Z,805.07
2023-02-27T07:47:44.301Z,805.07
2023-02-27T07:48:44.304Z,805.05
2023-02-27T07:49:44.306Z,805.07
2023-02-27T07:50:44.302Z,805.09
2023-02-27T07:51:44.302Z,805.10
2023-02-27T07:52:44.324Z,805.09
2023-02-27T07:53:44.311Z,805.13
2023-02-27T07:54:44.306Z,805.10
2023-02-27T07:55:44.313Z,805.14
2023-02-27T07:56:44.311Z,805.11
2023-02-27T07:57:44.318Z,805.12
2023-02-27T07:58:44.317Z,805.15
2023-02-27T07:59:44.384Z,805.15
2023-02-27T08:00:44.356Z,805.15
2023-02-27T08:01:44.326Z,805.17
2023-02-27T08:02:44.337Z,805.21
2023-02-27T08:03:44.325Z,805.23
2023-02-27T08:04:44.372Z,805.21
2023-02-27T08:05:44.362Z,805.23
2023-02-27T08:06:44.332Z,805.26
2023-02-27T08:07:44.335Z,805.26
2023-02-27T08:08:44.341Z,805.26
2023-02-27T08:09:44.353Z,805.26
2023-02-27T08:10:44.339Z,805.30
2023-02-27T08:11:44.347Z,805.28
2023-02-27T08:12:44.356Z,805.34
2023-02-27T08:14:01.529Z,805.35
2023-02-27T08:14:44.347Z,805.36
2023-02-27T08:15:44.390Z,805.38
2023-02-27T08:16:44.356Z,805.43
2023-02-27T08:17:44.364Z,805.43
2023-02-27T08:18:44.356Z,805.43
2023-02-27T08:19:44.359Z,805.43
2023-02-27T08:20:44.356Z,805.42
2023-02-27T08:21:44.381Z,805.41
2023-02-27T08:22:44.366Z,805.43
2023-02-27T08:23:44.370Z,805.52
2023-02-27T08:24:44.374Z,805.51
2023-02-27T08:25:44.369Z,805.49
2023-02-27T08:26:44.370Z,805.53
2023-02-27T08:27:44.377Z,805.53
2023-02-27T08:28:44.374Z,805.58
2023-02-27T08:29:44.381Z,805.56
2023-02-27T08:30:44.380Z,805.61
2023-02-27T08:31:44.597Z,805.61
2023-02-27T08:32:44.380Z,805.62
2023-02-27T08:33:44.385Z,805.61
2023-02-27T08:34:44.382Z,805.63
2023-02-27T08:35:44.424Z,805.69
2023-02-27T08:36:44.385Z,805.70
2023-02-27T08:37:44.396Z,805.72
2023-02-27T08:38:44.390Z,805.73
2023-02-27T08:39:44.395Z,805.73
2023-02-27T08:40:44.394Z,805.76
2023-02-27T08:41:44.401Z,805.76
2023-02-27T08:42:44.409Z,805.74
2023-02-27T08:43:44.564Z,805.76
2023-02-27T08:44:44.410Z,805.78
2023-02-27T08:45:44.467Z,805.78
2023-02-27T08:46:44.413Z,805.80
2023-02-27T08:47:44.433Z,805.79
2023-02-27T08:48:44.420Z,805.78
2023-02-27T08:49:44.423Z,805.81
2023-02-27T08:50:44.418Z,805.81
2023-02-27T08:51:44.435Z,805.85
2023-02-27T08:52:44.427Z,805.79
2023-02-27T08:53:44.430Z,805.79
2023-02-27T08:54:44.431Z,805.86
2023-02-27T08:55:44.434Z,805.82
2023-02-27T08:56:44.435Z,805.80
2023-02-27T08:57:44.451Z,805.80
2023-02-27T08:58:44.446Z,805.79
2023-02-27T08:59:44.507Z,805.85
2023-02-27T09:00:44.478Z,805.83
2023-02-27T09:01:44.450Z,805.87
2023-02-27T09:02:44.564Z,805.91
2023-02-27T09:03:44.513Z,805.89
2023-02-27T09:04:44.459Z,805.95
2023-02-27T09:05:44.555Z,805.97
2023-02-27T09:06:44.461Z,805.99
2023-02-27T09:07:44.461Z,805.98
2023-02-27T09:08:44.465Z,805.96
2023-02-27T09:09:44.470Z,805.99
2023-02-27T09:10:44.480Z,806.02
2023-02-27T09:11:44.491Z,805.99
2023-02-27T09:12:44.481Z,806.05
2023-02-27T09:13:44.491Z,806.00
2023-02-27T09:14:44.484Z,806.04
2023-02-27T09:15:44.503Z,806.01
2023-02-27T09:16:44.525Z,806.04
2023-02-27T09:17:44.490Z,806.02
2023-02-27T09:18:44.498Z,806.04
2023-02-27T09:19:44.516Z,806.08
2023-02-27T09:20:44.507Z,806.17
2023-02-27T09:21:44.511Z,806.13
2023-02-27T09:22:44.518Z,806.15
2023-02-27T09:23:44.504Z,806.18
2023-02-27T09:24:44.514Z,806.17
2023-02-27T09:25:44.510Z,806.18
2023-02-27T09:26:46.463Z,806.20
2023-02-27T09:27:44.523Z,806.16
2023-02-27T09:28:44.528Z,806.23
2023-02-27T09:29:44.529Z,806.22
2023-02-27T09:30:44.570Z,806.23
2023-02-27T09:31:44.663Z,806.29
2023-02-27T09:32:44.596Z,806.24
2023-02-27T09:33:44.536Z,806.22
2023-02-27T09:34:44.543Z,806.23
2023-02-27T09:35:44.640Z,806.25
2023-02-27T09:36:44.558Z,806.29
2023-02-27T09:37:44.546Z,806.27
2023-02-27T09:38:44.555Z,806.25
2023-02-27T09:39:46.268Z,806.29
2023-02-27T09:40:44.562Z,806.27
2023-02-27T09:41:44.565Z,806.34
2023-02-27T09:42:44.600Z,806.34
2023-02-27T09:43:44.577Z,806.32
2023-02-27T09:44:47.124Z,806.35
2023-02-27T09:45:44.696Z,806.40
2023-02-27T09:46:44.583Z,806.37
2023-02-27T09:47:44.583Z,806.38
2023-02-27T09:48:44.586Z,806.40
2023-02-27T09:49:44.591Z,806.35
2023-02-27T09:50:44.592Z,806.41
2023-02-27T09:51:44.618Z,806.42
2023-02-27T09:52:44.603Z,806.43
2023-02-27T09:53:44.601Z,806.45
2023-02-27T09:54:44.733Z,806.50
2023-02-27T09:55:44.608Z,806.51
2023-02-27T09:56:44.614Z,806.46
2023-02-27T09:57:44.615Z,806.47
2023-02-27T09:58:44.624Z,806.53
2023-02-27T09:59:44.624Z,806.54
2023-02-27T10:00:44.642Z,806.54
2023-02-27T10:01:44.640Z,806.53
2023-02-27T10:02:44.690Z,806.55
2023-02-27T10:03:44.641Z,806.60
2023-02-27T10:04:44.645Z,806.55
2023-02-27T10:05:44.648Z,806.53
2023-02-27T10:06:44.661Z,806.56
2023-02-27T10:07:44.671Z,806.61
2023-02-27T10:08:44.658Z,806.66
2023-02-27T10:09:44.686Z,806.68
2023-02-27T10:10:44.677Z,806.67
2023-02-27T10:11:44.683Z,806.73
2023-02-27T10:12:44.677Z,806.70
2023-02-27T10:13:44.680Z,806.76
2023-02-27T10:14:44.685Z,806.73
2023-02-27T10:15:44.687Z,806.77
2023-02-27T10:16:44.734Z,806.74
2023-02-27T10:17:44.699Z,806.78
2023-02-27T10:18:44.707Z,806.78
2023-02-27T10:19:44.704Z,806.79
2023-02-27T10:20:44.712Z,806.73
2023-02-27T10:21:44.717Z,806.80
2023-02-27T10:22:44.724Z,806.82
2023-02-27T10:23:44.753Z,806.82
2023-02-27T10:24:44.734Z,806.79
2023-02-27T10:25:44.732Z,806.84
2023-02-27T10:26:44.741Z,806.88
2023-02-27T10:27:44.753Z,806.86
2023-02-27T10:28:44.752Z,806.83
2023-02-27T10:29:44.768Z,806.84
2023-02-27T10:30:44.795Z,806.82
2023-02-27T10:31:44.781Z,806.88
2023-02-27T10:32:44.770Z,806.82
2023-02-27T10:33:44.788Z,806.91
2023-02-27T10:34:44.782Z,806.85
2023-02-27T10:35:44.832Z,806.86
2023-02-27T10:36:44.800Z,806.89
2023-02-27T10:37:44.794Z,806.91
2023-02-27T10:38:44.802Z,806.85
2023-02-27T10:39:44.832Z,806.86
2023-02-27T10:40:44.812Z,806.86
2023-02-27T10:41:44.819Z,806.82
2023-02-27T10:42:44.832Z,806.81
2023-02-27T10:43:44.825Z,806.78
2023-02-27T10:44:44.834Z,806.79
2023-02-27T10:45:44.836Z,806.83
2023-02-27T10:46:44.886Z,806.77
2023-02-27T10:47:44.849Z,806.78
2023-02-27T10:48:44.855Z,806.82
2023-02-27T10:49:44.855Z,806.80
2023-02-27T10:50:44.864Z,806.84
2023-02-27T10:51:44.876Z,806.77
2023-02-27T10:52:44.876Z,806.89
2023-02-27T10:53:44.897Z,806.84
2023-02-27T10:54:44.897Z,806.93
2023-02-27T10:55:44.910Z,806.87
2023-02-27T10:56:44.910Z,806.88
2023-02-27T10:57:44.902Z,806.87
2023-02-27T10:58:44.920Z,806.91
2023-02-27T10:59:44.912Z,806.83
2023-02-27T11:00:44.924Z,806.86
2023-02-27T11:01:44.998Z,806.80
2023-02-27T11:02:44.934Z,806.80
2023-02-27T11:03:44.937Z,806.85
2023-02-27T11:04:44.988Z,806.83
2023-02-27T11:05:44.947Z,806.87
2023-02-27T11:06:44.959Z,806.86
2023-02-27T11:07:44.966Z,806.86
2023-02-27T11:08:44.969Z,806.90
2023-02-27T11:09:44.972Z,806.88
2023-02-27T11:10:44.985Z,806.92
2023-02-27T11:11:45.009Z,806.88
2023-02-27T11:12:44.992Z,806.87
2023-02-27T11:13:44.995Z,806.89
2023-02-27T11:14:45.008Z,806.89
2023-02-27T11:15:45.032Z,806.92
2023-02-27T11:16:45.019Z,806.88
2023-02-27T11:17:45.022Z,806.81
2023-02-27T11:18:45.040Z,806.87
2023-02-27T11:19:45.039Z,806.90
2023-02-27T11:20:45.049Z,806.88
2023-02-27T11:21:45.045Z,806.90
2023-02-27T11:22:45.058Z,806.88
2023-02-27T11:23:45.056Z,806.91
2023-02-27T11:24:45.068Z,806.92
2023-02-27T11:25:45.074Z,806.94
2023-02-27T11:26:45.077Z,806.95
2023-02-27T11:27:45.099Z,806.92
2023-02-27T11:28:45.089Z,806.85
2023-02-27T11:29:45.095Z,806.87
2023-02-27T11:30:45.137Z,806.89
2023-02-27T11:31:45.140Z,806.94
2023-02-27T11:32:45.112Z,806.89
2023-02-27T11:33:45.117Z,806.89
2023-02-27T11:34:45.142Z,806.89
2023-02-27T11:35:45.143Z,806.92
2023-02-27T11:36:45.139Z,806.92
2023-02-27T11:37:45.143Z,806.97
2023-02-27T11:38:45.151Z,806.96
2023-02-27T11:39:45.157Z,806.96
2023-02-27T11:40:45.163Z,806.94
2023-02-27T11:41:45.205Z,806.94
2023-02-27T11:42:45.285Z,806.86
2023-02-27T11:43:45.294Z,806.87
2023-02-27T11:44:50.360Z,806.83
2023-02-27T11:46:04.821Z,806.90
2023-02-27T11:46:48.435Z,806.87
2023-02-27T11:47:45.207Z,806.85
2023-02-27T11:48:45.214Z,806.90
2023-02-27T11:49:45.214Z,806.93
2023-02-27T11:50:45.229Z,806.86
2023-02-27T11:51:45.225Z,806.90
2023-02-27T11:52:45.236Z,806.89
2023-02-27T11:53:45.236Z,806.88
2023-02-27T11:54:45.255Z,806.85
2023-02-27T11:55:45.264Z,806.81
2023-02-27T11:56:45.265Z,806.83
2023-02-27T11:57:45.265Z,806.81
2023-02-27T11:58:45.275Z,806.82
2023-02-27T11:59:45.329Z,806.77
2023-02-27T12:00:45.305Z,806.79
2023-02-27T12:01:45.292Z,806.83
2023-02-27T12:02:45.391Z,806.78
2023-02-27T12:03:45.376Z,806.81
2023-02-27T12:04:45.315Z,806.89
2023-02-27T12:05:45.315Z,806.76
2023-02-27T12:06:45.326Z,806.77
2023-02-27T12:07:45.333Z,806.85
2023-02-27T12:08:45.340Z,806.81
2023-02-27T12:09:45.341Z,806.88
2023-02-27T12:10:45.350Z,806.86
2023-02-27T12:11:45.362Z,806.76
2023-02-27T12:12:45.367Z,806.76
2023-02-27T12:13:45.494Z,806.75
2023-02-27T12:14:45.417Z,806.72
2023-02-27T12:15:45.394Z,806.66
2023-02-27T12:16:45.436Z,806.71
2023-02-27T12:17:45.392Z,806.72
2023-02-27T12:18:45.400Z,806.65
2023-02-27T12:19:45.406Z,806.68
2023-02-27T12:20:45.410Z,806.63
2023-02-27T12:21:45.416Z,806.65
2023-02-27T12:22:45.426Z,806.65
2023-02-27T12:23:45.426Z,806.74
2023-02-27T12:24:45.439Z,806.66
2023-02-27T12:25:45.437Z,806.65
2023-02-27T12:26:45.457Z,806.63
2023-02-27T12:27:45.451Z,806.60
2023-02-27T12:28:45.468Z,806.60